sensor_id;sensor_type;location;lat;lon;timestamp;P1;durP1;ratioP1;P2;durP2;ratioP2
69970;SDS011;57301;50.328;8.542;2022-07-04T00:01:33;3.22;;;2.33;;
69970;SDS011;57301;50.328;8.542;2022-07-04T00:03:59;3.97;;;2.40;;
69970;SDS011;57301;50.328;8.542;2022-07-04T00:06:26;4.20;;;2.30;;
69970;SDS011;57301;50.328;8.542;2022-07-04T00:08:53;4.43;;;2.75;;
69970;SDS011;57301;50.328;8.542;2022-07-04T00:11:19;4.50;;;2.40;;
69970;SDS011;57301;50.328;8.542;2022-07-04T00:13:46;4.15;;;2.60;;
69970;SDS011;57301;50.328;8.542;2022-07-04T00:16:12;3.72;;;2.10;;
69970;SDS011;57301;50.328;8.542;2022-07-04T00:18:39;4.07;;;2.57;;
69970;SDS011;57301;50.328;8.542;2022-07-04T00:21:06;4.07;;;2.45;;
69970;SDS011;57301;50.328;8.542;2022-07-04T00:23:32;3.88;;;2.40;;
69970;SDS011;57301;50.328;8.542;2022-07-04T00:25:59;6.10;;;2.50;;
69970;SDS011;57301;50.328;8.542;2022-07-04T00:28:25;3.42;;;2.40;;
69970;SDS011;57301;50.328;8.542;2022-07-04T00:30:52;3.60;;;2.40;;
69970;SDS011;57301;50.328;8.542;2022-07-04T00:33:18;3.83;;;2.35;;
69970;SDS011;57301;50.328;8.542;2022-07-04T00:35:45;5.55;;;2.40;;
69970;SDS011;57301;50.328;8.542;2022-07-04T00:38:11;5.40;;;2.42;;
69970;SDS011;57301;50.328;8.542;2022-07-04T00:40:38;4.88;;;2.60;;
69970;SDS011;57301;50.328;8.542;2022-07-04T00:43:05;4.00;;;2.23;;
69970;SDS011;57301;50.328;8.542;2022-07-04T00:45:31;5.47;;;2.78;;
69970;SDS011;57301;50.328;8.542;2022-07-04T00:47:58;4.60;;;2.72;;
69970;SDS011;57301;50.328;8.542;2022-07-04T00:50:25;5.63;;;2.80;;
69970;SDS011;57301;50.328;8.542;2022-07-04T00:52:52;4.97;;;2.97;;
69970;SDS011;57301;50.328;8.542;2022-07-04T00:55:20;4.63;;;2.70;;
69970;SDS011;57301;50.328;8.542;2022-07-04T00:57:48;5.15;;;2.60;;
69970;SDS011;57301;50.328;8.542;2022-07-04T01:00:16;6.75;;;2.72;;
69970;SDS011;57301;50.328;8.542;2022-07-04T01:02:44;5.45;;;2.70;;
69970;SDS011;57301;50.328;8.542;2022-07-04T01:05:12;3.70;;;2.53;;
69970;SDS011;57301;50.328;8.542;2022-07-04T01:07:40;4.53;;;2.50;;
69970;SDS011;57301;50.328;8.542;2022-07-04T01:10:07;6.32;;;2.80;;
69970;SDS011;57301;50.328;8.542;2022-07-04T01:12:34;8.05;;;2.80;;
69970;SDS011;57301;50.328;8.542;2022-07-04T01:15:01;5.45;;;2.80;;
69970;SDS011;57301;50.328;8.542;2022-07-04T01:17:27;4.95;;;2.85;;
69970;SDS011;57301;50.328;8.542;2022-07-04T01:19:54;5.80;;;2.50;;
69970;SDS011;57301;50.328;8.542;2022-07-04T01:22:21;3.72;;;2.40;;
69970;SDS011;57301;50.328;8.542;2022-07-04T01:24:49;8.15;;;3.35;;
69970;SDS011;57301;50.328;8.542;2022-07-04T01:27:16;4.70;;;3.17;;
69970;SDS011;57301;50.328;8.542;2022-07-04T01:29:44;5.38;;;3.08;;
69970;SDS011;57301;50.328;8.542;2022-07-04T01:32:11;6.23;;;3.00;;
69970;SDS011;57301;50.328;8.542;2022-07-04T01:34:37;5.75;;;3.13;;
69970;SDS011;57301;50.328;8.542;2022-07-04T01:37:09;4.93;;;2.78;;
69970;SDS011;57301;50.328;8.542;2022-07-04T01:39:36;5.00;;;2.90;;
69970;SDS011;57301;50.328;8.542;2022-07-04T01:42:03;4.55;;;2.80;;
69970;SDS011;57301;50.328;8.542;2022-07-04T01:44:30;5.37;;;2.90;;
69970;SDS011;57301;50.328;8.542;2022-07-04T01:46:57;7.13;;;2.83;;
69970;SDS011;57301;50.328;8.542;2022-07-04T01:49:24;4.25;;;2.60;;
69970;SDS011;57301;50.328;8.542;2022-07-04T01:51:51;5.50;;;2.80;;
69970;SDS011;57301;50.328;8.542;2022-07-04T01:54:18;4.18;;;2.85;;
69970;SDS011;57301;50.328;8.542;2022-07-04T01:56:45;4.40;;;2.70;;
69970;SDS011;57301;50.328;8.542;2022-07-04T01:59:12;5.72;;;2.88;;
69970;SDS011;57301;50.328;8.542;2022-07-04T02:01:39;4.43;;;2.90;;
69970;SDS011;57301;50.328;8.542;2022-07-04T02:04:06;5.07;;;2.85;;
69970;SDS011;57301;50.328;8.542;2022-07-04T02:06:34;4.95;;;2.80;;
69970;SDS011;57301;50.328;8.542;2022-07-04T02:09:01;4.93;;;2.83;;
69970;SDS011;57301;50.328;8.542;2022-07-04T02:11:41;4.43;;;2.85;;
69970;SDS011;57301;50.328;8.542;2022-07-04T02:14:28;5.80;;;2.95;;
69970;SDS011;57301;50.328;8.542;2022-07-04T02:16:56;5.40;;;3.13;;
69970;SDS011;57301;50.328;8.542;2022-07-04T02:19:23;5.65;;;3.10;;
69970;SDS011;57301;50.328;8.542;2022-07-04T02:21:50;6.43;;;3.23;;
69970;SDS011;57301;50.328;8.542;2022-07-04T02:24:18;5.88;;;3.17;;
69970;SDS011;57301;50.328;8.542;2022-07-04T02:26:46;6.82;;;2.80;;
69970;SDS011;57301;50.328;8.542;2022-07-04T02:29:15;4.47;;;3.03;;
69970;SDS011;57301;50.328;8.542;2022-07-04T02:31:42;7.65;;;3.30;;
69970;SDS011;57301;50.328;8.542;2022-07-04T02:34:09;5.57;;;3.40;;
69970;SDS011;57301;50.328;8.542;2022-07-04T02:36:36;5.00;;;3.00;;
69970;SDS011;57301;50.328;8.542;2022-07-04T02:39:03;5.93;;;3.20;;
69970;SDS011;57301;50.328;8.542;2022-07-04T02:41:33;6.00;;;3.05;;
69970;SDS011;57301;50.328;8.542;2022-07-04T02:44:00;5.78;;;3.10;;
69970;SDS011;57301;50.328;8.542;2022-07-04T02:46:27;4.93;;;3.27;;
69970;SDS011;57301;50.328;8.542;2022-07-04T02:48:54;5.93;;;3.17;;
69970;SDS011;57301;50.328;8.542;2022-07-04T02:51:20;5.32;;;3.15;;
69970;SDS011;57301;50.328;8.542;2022-07-04T02:53:47;4.82;;;3.10;;
69970;SDS011;57301;50.328;8.542;2022-07-04T02:56:14;6.47;;;3.20;;
69970;SDS011;57301;50.328;8.542;2022-07-04T02:58:40;5.30;;;2.90;;
69970;SDS011;57301;50.328;8.542;2022-07-04T03:01:07;8.07;;;3.53;;
69970;SDS011;57301;50.328;8.542;2022-07-04T03:03:34;5.13;;;3.60;;
69970;SDS011;57301;50.328;8.542;2022-07-04T03:06:01;5.88;;;3.15;;
69970;SDS011;57301;50.328;8.542;2022-07-04T03:08:30;6.65;;;3.28;;
69970;SDS011;57301;50.328;8.542;2022-07-04T03:10:57;7.40;;;3.33;;
69970;SDS011;57301;50.328;8.542;2022-07-04T03:13:23;4.82;;;3.33;;
69970;SDS011;57301;50.328;8.542;2022-07-04T03:15:50;5.80;;;3.65;;
69970;SDS011;57301;50.328;8.542;2022-07-04T03:18:17;4.80;;;3.20;;
69970;SDS011;57301;50.328;8.542;2022-07-04T03:20:44;5.80;;;3.13;;
69970;SDS011;57301;50.328;8.542;2022-07-04T03:23:11;4.70;;;3.00;;
69970;SDS011;57301;50.328;8.542;2022-07-04T03:25:38;4.82;;;3.42;;
69970;SDS011;57301;50.328;8.542;2022-07-04T03:28:06;4.70;;;3.40;;
69970;SDS011;57301;50.328;8.542;2022-07-04T03:30:33;4.95;;;3.70;;
69970;SDS011;57301;50.328;8.542;2022-07-04T03:33:00;4.93;;;3.38;;
69970;SDS011;57301;50.328;8.542;2022-07-04T03:35:27;6.37;;;3.30;;
69970;SDS011;57301;50.328;8.542;2022-07-04T03:37:53;5.80;;;3.72;;
69970;SDS011;57301;50.328;8.542;2022-07-04T03:40:21;5.93;;;3.15;;
69970;SDS011;57301;50.328;8.542;2022-07-04T03:42:47;5.97;;;3.30;;
69970;SDS011;57301;50.328;8.542;2022-07-04T03:45:15;4.55;;;3.35;;
69970;SDS011;57301;50.328;8.542;2022-07-04T03:47:41;4.90;;;3.40;;
69970;SDS011;57301;50.328;8.542;2022-07-04T03:50:08;4.07;;;3.10;;
69970;SDS011;57301;50.328;8.542;2022-07-04T03:52:35;3.97;;;3.17;;
69970;SDS011;57301;50.328;8.542;2022-07-04T03:55:02;9.52;;;3.20;;
69970;SDS011;57301;50.328;8.542;2022-07-04T03:57:29;6.38;;;3.60;;
69970;SDS011;57301;50.328;8.542;2022-07-04T03:59:55;4.67;;;3.10;;
69970;SDS011;57301;50.328;8.542;2022-07-04T04:02:22;4.70;;;3.00;;
69970;SDS011;57301;50.328;8.542;2022-07-04T04:04:48;4.78;;;3.20;;
69970;SDS011;57301;50.328;8.542;2022-07-04T04:07:34;4.97;;;3.08;;
69970;SDS011;57301;50.328;8.542;2022-07-04T04:10:00;5.15;;;3.15;;
69970;SDS011;57301;50.328;8.542;2022-07-04T04:12:27;4.27;;;3.07;;
69970;SDS011;57301;50.328;8.542;2022-07-04T04:14:54;4.10;;;3.30;;
69970;SDS011;57301;50.328;8.542;2022-07-04T04:17:20;5.32;;;2.97;;
69970;SDS011;57301;50.328;8.542;2022-07-04T04:19:47;3.95;;;3.03;;
69970;SDS011;57301;50.328;8.542;2022-07-04T04:22:13;5.68;;;3.33;;
69970;SDS011;57301;50.328;8.542;2022-07-04T04:24:40;4.33;;;3.20;;
69970;SDS011;57301;50.328;8.542;2022-07-04T04:27:07;4.68;;;3.05;;
69970;SDS011;57301;50.328;8.542;2022-07-04T04:29:33;4.97;;;3.00;;
69970;SDS011;57301;50.328;8.542;2022-07-04T04:32:00;4.28;;;3.35;;
69970;SDS011;57301;50.328;8.542;2022-07-04T04:34:26;5.47;;;3.30;;
69970;SDS011;57301;50.328;8.542;2022-07-04T04:36:53;6.13;;;3.00;;
69970;SDS011;57301;50.328;8.542;2022-07-04T04:39:19;5.10;;;2.95;;
69970;SDS011;57301;50.328;8.542;2022-07-04T04:41:46;3.72;;;3.10;;
69970;SDS011;57301;50.328;8.542;2022-07-04T04:44:13;4.18;;;3.35;;
69970;SDS011;57301;50.328;8.542;2022-07-04T04:46:39;5.18;;;3.20;;
69970;SDS011;57301;50.328;8.542;2022-07-04T04:49:06;6.87;;;3.20;;
69970;SDS011;57301;50.328;8.542;2022-07-04T04:51:33;4.55;;;3.28;;
69970;SDS011;57301;50.328;8.542;2022-07-04T04:53:59;6.38;;;3.47;;
69970;SDS011;57301;50.328;8.542;2022-07-04T04:56:26;5.03;;;3.42;;
69970;SDS011;57301;50.328;8.542;2022-07-04T04:58:53;5.05;;;3.50;;
69970;SDS011;57301;50.328;8.542;2022-07-04T05:01:19;4.43;;;3.10;;
69970;SDS011;57301;50.328;8.542;2022-07-04T05:04:06;5.35;;;3.00;;
69970;SDS011;57301;50.328;8.542;2022-07-04T05:06:32;5.95;;;3.30;;
69970;SDS011;57301;50.328;8.542;2022-07-04T05:08:59;5.47;;;3.38;;
69970;SDS011;57301;50.328;8.542;2022-07-04T05:11:25;6.50;;;3.35;;
69970;SDS011;57301;50.328;8.542;2022-07-04T05:13:52;7.87;;;3.10;;
69970;SDS011;57301;50.328;8.542;2022-07-04T05:16:19;5.05;;;2.80;;
69970;SDS011;57301;50.328;8.542;2022-07-04T05:18:46;5.95;;;2.75;;
69970;SDS011;57301;50.328;8.542;2022-07-04T05:21:12;5.78;;;2.83;;
69970;SDS011;57301;50.328;8.542;2022-07-04T05:23:39;4.95;;;2.40;;
69970;SDS011;57301;50.328;8.542;2022-07-04T05:26:05;4.93;;;2.40;;
69970;SDS011;57301;50.328;8.542;2022-07-04T05:28:32;4.45;;;2.13;;
69970;SDS011;57301;50.328;8.542;2022-07-04T05:30:58;3.53;;;2.30;;
69970;SDS011;57301;50.328;8.542;2022-07-04T05:33:25;4.85;;;2.20;;
69970;SDS011;57301;50.328;8.542;2022-07-04T05:35:51;5.45;;;2.38;;
69970;SDS011;57301;50.328;8.542;2022-07-04T05:38:18;4.20;;;2.03;;
69970;SDS011;57301;50.328;8.542;2022-07-04T05:40:45;6.13;;;1.80;;
69970;SDS011;57301;50.328;8.542;2022-07-04T05:43:11;5.15;;;1.88;;
69970;SDS011;57301;50.328;8.542;2022-07-04T05:45:38;6.07;;;1.98;;
69970;SDS011;57301;50.328;8.542;2022-07-04T05:48:05;5.72;;;1.90;;
69970;SDS011;57301;50.328;8.542;2022-07-04T05:50:32;4.47;;;1.70;;
69970;SDS011;57301;50.328;8.542;2022-07-04T05:52:58;3.47;;;1.80;;
69970;SDS011;57301;50.328;8.542;2022-07-04T05:55:26;3.92;;;1.73;;
69970;SDS011;57301;50.328;8.542;2022-07-04T05:57:52;4.30;;;1.50;;
69970;SDS011;57301;50.328;8.542;2022-07-04T06:00:19;3.10;;;1.50;;
69970;SDS011;57301;50.328;8.542;2022-07-04T06:02:46;4.63;;;1.57;;
69970;SDS011;57301;50.328;8.542;2022-07-04T06:05:13;4.47;;;1.50;;
69970;SDS011;57301;50.328;8.542;2022-07-04T06:07:40;3.88;;;1.30;;
69970;SDS011;57301;50.328;8.542;2022-07-04T06:10:07;3.83;;;1.38;;
69970;SDS011;57301;50.328;8.542;2022-07-04T06:12:34;5.38;;;1.50;;
69970;SDS011;57301;50.328;8.542;2022-07-04T06:15:01;3.17;;;1.40;;
69970;SDS011;57301;50.328;8.542;2022-07-04T06:17:28;4.55;;;1.75;;
69970;SDS011;57301;50.328;8.542;2022-07-04T06:19:55;4.95;;;1.50;;
69970;SDS011;57301;50.328;8.542;2022-07-04T06:22:21;5.25;;;1.40;;
69970;SDS011;57301;50.328;8.542;2022-07-04T06:24:51;3.63;;;1.40;;
69970;SDS011;57301;50.328;8.542;2022-07-04T06:27:17;4.47;;;1.40;;
69970;SDS011;57301;50.328;8.542;2022-07-04T06:29:44;3.20;;;1.30;;
69970;SDS011;57301;50.328;8.542;2022-07-04T06:32:11;5.15;;;1.40;;
69970;SDS011;57301;50.328;8.542;2022-07-04T06:34:38;2.70;;;1.10;;
69970;SDS011;57301;50.328;8.542;2022-07-04T06:37:23;3.97;;;1.30;;
69970;SDS011;57301;50.328;8.542;2022-07-04T06:39:50;4.70;;;1.40;;
69970;SDS011;57301;50.328;8.542;2022-07-04T06:42:17;4.28;;;1.20;;
69970;SDS011;57301;50.328;8.542;2022-07-04T06:44:43;5.82;;;1.48;;
69970;SDS011;57301;50.328;8.542;2022-07-04T06:47:11;5.35;;;1.20;;
69970;SDS011;57301;50.328;8.542;2022-07-04T06:49:37;5.15;;;1.30;;
69970;SDS011;57301;50.328;8.542;2022-07-04T06:52:04;4.40;;;1.20;;
69970;SDS011;57301;50.328;8.542;2022-07-04T06:54:31;2.45;;;1.20;;
69970;SDS011;57301;50.328;8.542;2022-07-04T06:56:57;3.13;;;1.10;;
69970;SDS011;57301;50.328;8.542;2022-07-04T06:59:45;3.63;;;1.02;;
69970;SDS011;57301;50.328;8.542;2022-07-04T07:02:12;3.20;;;1.00;;
69970;SDS011;57301;50.328;8.542;2022-07-04T07:04:38;3.30;;;1.00;;
69970;SDS011;57301;50.328;8.542;2022-07-04T07:07:07;3.13;;;1.00;;
69970;SDS011;57301;50.328;8.542;2022-07-04T07:09:33;4.13;;;1.30;;
69970;SDS011;57301;50.328;8.542;2022-07-04T07:12:00;4.85;;;1.38;;
69970;SDS011;57301;50.328;8.542;2022-07-04T07:14:27;3.20;;;1.05;;
69970;SDS011;57301;50.328;8.542;2022-07-04T07:16:54;3.77;;;1.20;;
69970;SDS011;57301;50.328;8.542;2022-07-04T07:19:21;3.83;;;1.10;;
69970;SDS011;57301;50.328;8.542;2022-07-04T07:21:48;3.33;;;1.08;;
69970;SDS011;57301;50.328;8.542;2022-07-04T07:24:14;3.08;;;0.95;;
69970;SDS011;57301;50.328;8.542;2022-07-04T07:26:41;4.13;;;1.13;;
69970;SDS011;57301;50.328;8.542;2022-07-04T07:29:07;2.70;;;1.20;;
69970;SDS011;57301;50.328;8.542;2022-07-04T07:31:34;3.10;;;0.90;;
69970;SDS011;57301;50.328;8.542;2022-07-04T07:34:01;5.07;;;0.82;;
69970;SDS011;57301;50.328;8.542;2022-07-04T07:36:27;2.45;;;0.93;;
69970;SDS011;57301;50.328;8.542;2022-07-04T07:38:54;3.88;;;1.08;;
69970;SDS011;57301;50.328;8.542;2022-07-04T07:41:22;2.80;;;0.87;;
69970;SDS011;57301;50.328;8.542;2022-07-04T07:43:48;2.83;;;0.90;;
69970;SDS011;57301;50.328;8.542;2022-07-04T07:46:15;3.53;;;1.10;;
69970;SDS011;57301;50.328;8.542;2022-07-04T07:48:42;4.55;;;2.83;;
69970;SDS011;57301;50.328;8.542;2022-07-04T07:51:11;9.32;;;6.82;;
69970;SDS011;57301;50.328;8.542;2022-07-04T07:53:40;4.70;;;1.20;;
69970;SDS011;57301;50.328;8.542;2022-07-04T07:56:27;3.75;;;0.90;;
69970;SDS011;57301;50.328;8.542;2022-07-04T07:58:54;3.28;;;1.00;;
69970;SDS011;57301;50.328;8.542;2022-07-04T08:01:21;3.47;;;1.00;;
69970;SDS011;57301;50.328;8.542;2022-07-04T08:03:48;4.03;;;0.93;;
69970;SDS011;57301;50.328;8.542;2022-07-04T08:06:38;2.47;;;0.80;;
69970;SDS011;57301;50.328;8.542;2022-07-04T08:09:05;2.35;;;0.85;;
69970;SDS011;57301;50.328;8.542;2022-07-04T08:11:32;3.67;;;0.90;;
69970;SDS011;57301;50.328;8.542;2022-07-04T08:13:59;3.67;;;0.90;;
69970;SDS011;57301;50.328;8.542;2022-07-04T08:16:26;1.95;;;0.70;;
69970;SDS011;57301;50.328;8.542;2022-07-04T08:19:13;3.67;;;0.73;;
69970;SDS011;57301;50.328;8.542;2022-07-04T08:21:39;3.47;;;0.90;;
69970;SDS011;57301;50.328;8.542;2022-07-04T08:24:26;4.55;;;0.90;;
69970;SDS011;57301;50.328;8.542;2022-07-04T08:26:53;5.88;;;3.58;;
69970;SDS011;57301;50.328;8.542;2022-07-04T08:29:19;3.08;;;1.45;;
69970;SDS011;57301;50.328;8.542;2022-07-04T08:31:47;3.97;;;1.20;;
69970;SDS011;57301;50.328;8.542;2022-07-04T08:34:17;3.33;;;0.90;;
69970;SDS011;57301;50.328;8.542;2022-07-04T08:36:44;3.45;;;0.98;;
69970;SDS011;57301;50.328;8.542;2022-07-04T08:39:11;2.35;;;0.80;;
69970;SDS011;57301;50.328;8.542;2022-07-04T08:41:38;2.80;;;0.80;;
69970;SDS011;57301;50.328;8.542;2022-07-04T08:44:07;3.03;;;0.90;;
69970;SDS011;57301;50.328;8.542;2022-07-04T08:46:39;2.83;;;0.80;;
69970;SDS011;57301;50.328;8.542;2022-07-04T08:49:10;2.67;;;0.90;;
69970;SDS011;57301;50.328;8.542;2022-07-04T08:51:54;3.50;;;1.13;;
69970;SDS011;57301;50.328;8.542;2022-07-04T08:54:26;3.10;;;0.80;;
69970;SDS011;57301;50.328;8.542;2022-07-04T08:57:11;3.83;;;0.90;;
69970;SDS011;57301;50.328;8.542;2022-07-04T08:59:58;2.85;;;0.80;;
69970;SDS011;57301;50.328;8.542;2022-07-04T09:02:28;2.58;;;0.73;;
69970;SDS011;57301;50.328;8.542;2022-07-04T09:04:55;3.42;;;0.80;;
69970;SDS011;57301;50.328;8.542;2022-07-04T09:07:22;2.92;;;0.70;;
69970;SDS011;57301;50.328;8.542;2022-07-04T09:09:49;4.80;;;0.97;;
69970;SDS011;57301;50.328;8.542;2022-07-04T09:12:18;2.15;;;0.85;;
69970;SDS011;57301;50.328;8.542;2022-07-04T09:14:45;6.20;;;3.45;;
69970;SDS011;57301;50.328;8.542;2022-07-04T09:17:11;2.83;;;0.90;;
69970;SDS011;57301;50.328;8.542;2022-07-04T09:19:38;2.60;;;0.70;;
69970;SDS011;57301;50.328;8.542;2022-07-04T09:22:07;2.97;;;0.73;;
69970;SDS011;57301;50.328;8.542;2022-07-04T09:24:48;3.58;;;0.90;;
69970;SDS011;57301;50.328;8.542;2022-07-04T09:27:29;2.40;;;0.88;;
69970;SDS011;57301;50.328;8.542;2022-07-04T09:29:57;3.45;;;0.70;;
69970;SDS011;57301;50.328;8.542;2022-07-04T09:32:47;3.33;;;0.90;;
69970;SDS011;57301;50.328;8.542;2022-07-04T09:35:20;2.27;;;0.60;;
69970;SDS011;57301;50.328;8.542;2022-07-04T09:37:49;3.85;;;0.70;;
69970;SDS011;57301;50.328;8.542;2022-07-04T09:40:27;2.67;;;0.70;;
69970;SDS011;57301;50.328;8.542;2022-07-04T09:42:55;2.50;;;0.88;;
69970;SDS011;57301;50.328;8.542;2022-07-04T09:45:23;3.88;;;0.80;;
69970;SDS011;57301;50.328;8.542;2022-07-04T09:47:53;3.73;;;1.00;;
69970;SDS011;57301;50.328;8.542;2022-07-04T09:50:24;2.60;;;0.90;;
69970;SDS011;57301;50.328;8.542;2022-07-04T09:55:35;4.00;;;1.60;;
69970;SDS011;57301;50.328;8.542;2022-07-04T09:58:10;3.33;;;0.90;;
69970;SDS011;57301;50.328;8.542;2022-07-04T10:00:41;3.73;;;0.80;;
69970;SDS011;57301;50.328;8.542;2022-07-04T10:03:19;2.33;;;0.80;;
69970;SDS011;57301;50.328;8.542;2022-07-04T10:08:32;2.95;;;0.73;;
69970;SDS011;57301;50.328;8.542;2022-07-04T10:11:00;2.47;;;0.85;;
69970;SDS011;57301;50.328;8.542;2022-07-04T10:13:33;2.90;;;0.80;;
69970;SDS011;57301;50.328;8.542;2022-07-04T10:16:00;2.97;;;0.90;;
69970;SDS011;57301;50.328;8.542;2022-07-04T10:18:27;2.75;;;0.90;;
69970;SDS011;57301;50.328;8.542;2022-07-04T10:20:54;2.65;;;0.80;;
69970;SDS011;57301;50.328;8.542;2022-07-04T10:23:22;2.72;;;0.75;;
69970;SDS011;57301;50.328;8.542;2022-07-04T10:25:50;2.77;;;0.90;;
69970;SDS011;57301;50.328;8.542;2022-07-04T10:28:18;2.88;;;1.00;;
69970;SDS011;57301;50.328;8.542;2022-07-04T10:30:46;3.28;;;0.77;;
69970;SDS011;57301;50.328;8.542;2022-07-04T10:33:21;2.95;;;0.82;;
69970;SDS011;57301;50.328;8.542;2022-07-04T10:38:17;2.33;;;1.00;;
69970;SDS011;57301;50.328;8.542;2022-07-04T10:40:52;3.50;;;0.80;;
69970;SDS011;57301;50.328;8.542;2022-07-04T10:51:54;2.40;;;0.80;;
69970;SDS011;57301;50.328;8.542;2022-07-04T10:54:30;3.45;;;0.90;;
69970;SDS011;57301;50.328;8.542;2022-07-04T10:57:20;3.45;;;0.75;;
69970;SDS011;57301;50.328;8.542;2022-07-04T11:02:26;2.33;;;0.70;;
69970;SDS011;57301;50.328;8.542;2022-07-04T11:18:03;4.43;;;0.80;;
69970;SDS011;57301;50.328;8.542;2022-07-04T11:20:34;2.78;;;0.88;;
69970;SDS011;57301;50.328;8.542;2022-07-04T11:23:05;2.28;;;0.70;;
69970;SDS011;57301;50.328;8.542;2022-07-04T11:25:33;2.35;;;0.68;;
69970;SDS011;57301;50.328;8.542;2022-07-04T11:31:09;3.40;;;0.90;;
69970;SDS011;57301;50.328;8.542;2022-07-04T11:33:37;2.25;;;0.75;;
69970;SDS011;57301;50.328;8.542;2022-07-04T11:38:48;3.78;;;1.02;;
69970;SDS011;57301;50.328;8.542;2022-07-04T11:41:17;2.13;;;0.82;;
69970;SDS011;57301;50.328;8.542;2022-07-04T11:44:04;4.23;;;2.07;;
69970;SDS011;57301;50.328;8.542;2022-07-04T11:46:51;6.97;;;1.90;;
69970;SDS011;57301;50.328;8.542;2022-07-04T11:49:28;3.92;;;2.03;;
69970;SDS011;57301;50.328;8.542;2022-07-04T11:51:54;3.85;;;1.92;;
69970;SDS011;57301;50.328;8.542;2022-07-04T11:54:21;2.53;;;1.00;;
69970;SDS011;57301;50.328;8.542;2022-07-04T11:57:14;4.57;;;2.03;;
69970;SDS011;57301;50.328;8.542;2022-07-04T12:00:01;2.70;;;1.05;;
69970;SDS011;57301;50.328;8.542;2022-07-04T12:02:43;2.10;;;0.80;;
69970;SDS011;57301;50.328;8.542;2022-07-04T12:05:11;2.45;;;0.70;;
69970;SDS011;57301;50.328;8.542;2022-07-04T12:07:39;3.53;;;1.80;;
69970;SDS011;57301;50.328;8.542;2022-07-04T12:10:08;2.60;;;1.13;;
69970;SDS011;57301;50.328;8.542;2022-07-04T12:12:59;2.10;;;0.70;;
69970;SDS011;57301;50.328;8.542;2022-07-04T12:15:39;3.33;;;0.80;;
69970;SDS011;57301;50.328;8.542;2022-07-04T12:21:14;3.45;;;0.80;;
69970;SDS011;57301;50.328;8.542;2022-07-04T12:23:51;2.47;;;0.70;;
69970;SDS011;57301;50.328;8.542;2022-07-04T12:26:44;3.65;;;0.73;;
69970;SDS011;57301;50.328;8.542;2022-07-04T12:29:19;1.92;;;0.70;;
69970;SDS011;57301;50.328;8.542;2022-07-04T12:31:56;2.20;;;0.80;;
69970;SDS011;57301;50.328;8.542;2022-07-04T12:34:23;2.40;;;0.80;;
69970;SDS011;57301;50.328;8.542;2022-07-04T12:39:35;2.08;;;0.77;;
69970;SDS011;57301;50.328;8.542;2022-07-04T12:42:16;2.55;;;0.60;;
69970;SDS011;57301;50.328;8.542;2022-07-04T12:44:45;2.47;;;0.60;;
69970;SDS011;57301;50.328;8.542;2022-07-04T12:47:15;1.95;;;0.63;;
69970;SDS011;57301;50.328;8.542;2022-07-04T12:50:02;2.43;;;0.87;;
69970;SDS011;57301;50.328;8.542;2022-07-04T12:52:29;2.30;;;0.70;;
69970;SDS011;57301;50.328;8.542;2022-07-04T12:55:05;2.95;;;0.77;;
69970;SDS011;57301;50.328;8.542;2022-07-04T12:57:36;3.58;;;0.90;;
69970;SDS011;57301;50.328;8.542;2022-07-04T13:00:03;2.90;;;0.80;;
69970;SDS011;57301;50.328;8.542;2022-07-04T13:02:50;2.23;;;0.80;;
69970;SDS011;57301;50.328;8.542;2022-07-04T13:05:17;2.60;;;0.90;;
69970;SDS011;57301;50.328;8.542;2022-07-04T13:07:44;2.00;;;0.80;;
69970;SDS011;57301;50.328;8.542;2022-07-04T13:10:12;2.90;;;0.88;;
69970;SDS011;57301;50.328;8.542;2022-07-04T13:12:39;3.28;;;1.10;;
69970;SDS011;57301;50.328;8.542;2022-07-04T13:15:05;3.40;;;0.80;;
69970;SDS011;57301;50.328;8.542;2022-07-04T13:17:33;2.42;;;1.00;;
69970;SDS011;57301;50.328;8.542;2022-07-04T13:19:59;2.38;;;0.85;;
69970;SDS011;57301;50.328;8.542;2022-07-04T13:22:28;2.28;;;0.70;;
69970;SDS011;57301;50.328;8.542;2022-07-04T13:24:54;3.65;;;2.53;;
69970;SDS011;57301;50.328;8.542;2022-07-04T13:27:21;3.80;;;1.00;;
69970;SDS011;57301;50.328;8.542;2022-07-04T13:29:47;3.15;;;0.90;;
69970;SDS011;57301;50.328;8.542;2022-07-04T13:32:14;3.63;;;2.15;;
69970;SDS011;57301;50.328;8.542;2022-07-04T13:34:41;2.50;;;1.17;;
69970;SDS011;57301;50.328;8.542;2022-07-04T13:37:07;3.15;;;0.95;;
69970;SDS011;57301;50.328;8.542;2022-07-04T13:39:34;2.33;;;0.90;;
69970;SDS011;57301;50.328;8.542;2022-07-04T13:42:18;4.10;;;1.50;;
69970;SDS011;57301;50.328;8.542;2022-07-04T13:45:05;4.68;;;1.33;;
69970;SDS011;57301;50.328;8.542;2022-07-04T13:47:33;4.40;;;2.67;;
69970;SDS011;57301;50.328;8.542;2022-07-04T13:50:00;2.15;;;0.73;;
69970;SDS011;57301;50.328;8.542;2022-07-04T13:52:27;2.53;;;0.70;;
69970;SDS011;57301;50.328;8.542;2022-07-04T13:54:54;2.53;;;0.70;;
69970;SDS011;57301;50.328;8.542;2022-07-04T13:57:20;2.83;;;0.60;;
69970;SDS011;57301;50.328;8.542;2022-07-04T13:59:47;3.03;;;0.60;;
69970;SDS011;57301;50.328;8.542;2022-07-04T14:02:13;1.77;;;0.57;;
69970;SDS011;57301;50.328;8.542;2022-07-04T14:04:40;1.90;;;0.60;;
69970;SDS011;57301;50.328;8.542;2022-07-04T14:07:07;1.85;;;0.60;;
69970;SDS011;57301;50.328;8.542;2022-07-04T14:09:42;2.72;;;0.80;;
69970;SDS011;57301;50.328;8.542;2022-07-04T14:12:09;2.33;;;0.70;;
69970;SDS011;57301;50.328;8.542;2022-07-04T14:14:36;2.22;;;0.68;;
69970;SDS011;57301;50.328;8.542;2022-07-04T14:17:02;3.73;;;0.90;;
69970;SDS011;57301;50.328;8.542;2022-07-04T14:19:49;2.97;;;0.77;;
69970;SDS011;57301;50.328;8.542;2022-07-04T14:22:15;2.40;;;0.75;;
69970;SDS011;57301;50.328;8.542;2022-07-04T14:24:42;1.90;;;0.60;;
69970;SDS011;57301;50.328;8.542;2022-07-04T14:27:09;2.35;;;0.50;;
69970;SDS011;57301;50.328;8.542;2022-07-04T14:29:35;2.13;;;0.60;;
69970;SDS011;57301;50.328;8.542;2022-07-04T14:32:08;2.53;;;0.60;;
69970;SDS011;57301;50.328;8.542;2022-07-04T14:34:34;3.13;;;0.70;;
69970;SDS011;57301;50.328;8.542;2022-07-04T14:37:01;1.85;;;0.63;;
69970;SDS011;57301;50.328;8.542;2022-07-04T14:39:27;3.67;;;0.60;;
69970;SDS011;57301;50.328;8.542;2022-07-04T14:41:54;3.70;;;0.70;;
69970;SDS011;57301;50.328;8.542;2022-07-04T14:44:21;1.77;;;0.50;;
69970;SDS011;57301;50.328;8.542;2022-07-04T14:46:47;3.78;;;0.70;;
69970;SDS011;57301;50.328;8.542;2022-07-04T14:49:14;4.13;;;0.90;;
69970;SDS011;57301;50.328;8.542;2022-07-04T14:51:40;2.15;;;0.75;;
69970;SDS011;57301;50.328;8.542;2022-07-04T14:54:08;1.77;;;0.60;;
69970;SDS011;57301;50.328;8.542;2022-07-04T14:56:35;2.78;;;0.60;;
69970;SDS011;57301;50.328;8.542;2022-07-04T14:59:02;1.80;;;0.60;;
69970;SDS011;57301;50.328;8.542;2022-07-04T15:01:30;1.80;;;0.60;;
69970;SDS011;57301;50.328;8.542;2022-07-04T15:03:57;2.72;;;0.63;;
69970;SDS011;57301;50.328;8.542;2022-07-04T15:06:24;1.97;;;0.50;;
69970;SDS011;57301;50.328;8.542;2022-07-04T15:08:51;3.38;;;0.60;;
69970;SDS011;57301;50.328;8.542;2022-07-04T15:11:19;3.40;;;0.80;;
69970;SDS011;57301;50.328;8.542;2022-07-04T15:13:46;1.90;;;0.70;;
69970;SDS011;57301;50.328;8.542;2022-07-04T15:16:13;3.08;;;0.70;;
69970;SDS011;57301;50.328;8.542;2022-07-04T15:18:49;4.43;;;1.60;;
69970;SDS011;57301;50.328;8.542;2022-07-04T15:21:17;2.42;;;0.90;;
69970;SDS011;57301;50.328;8.542;2022-07-04T15:24:02;2.65;;;0.90;;
69970;SDS011;57301;50.328;8.542;2022-07-04T15:26:43;1.80;;;0.70;;
69970;SDS011;57301;50.328;8.542;2022-07-04T15:29:12;3.30;;;1.67;;
69970;SDS011;57301;50.328;8.542;2022-07-04T15:31:40;2.20;;;0.73;;
69970;SDS011;57301;50.328;8.542;2022-07-04T15:34:08;2.17;;;0.60;;
69970;SDS011;57301;50.328;8.542;2022-07-04T15:36:34;2.67;;;0.70;;
69970;SDS011;57301;50.328;8.542;2022-07-04T15:39:11;2.70;;;0.65;;
69970;SDS011;57301;50.328;8.542;2022-07-04T15:41:40;3.15;;;1.00;;
69970;SDS011;57301;50.328;8.542;2022-07-04T15:44:07;2.63;;;0.90;;